createdAt,value
2016-07-25T00:00:44.473Z,23.96
2016-07-25T00:01:44.460Z,24.08
2016-07-25T00:02:43.748Z,24.08
2016-07-25T00:03:44.427Z,24.14
2016-07-25T00:04:44.425Z,24.06
2016-07-25T00:05:43.706Z,24.05
2016-07-25T00:06:43.681Z,24
2016-07-25T00:07:44.375Z,23.96
2016-07-25T00:08:43.669Z,23.97
2016-07-25T00:09:44.340Z,24.05
2016-07-25T00:10:43.653Z,24.02
2016-07-25T00:11:44.324Z,24.09
2016-07-25T00:12:44.344Z,24.05
2016-07-25T00:13:44.299Z,24.11
2016-07-25T00:14:44.278Z,24.08
2016-07-25T00:15:44.253Z,24.04
2016-07-25T00:16:44.256Z,23.93
2016-07-25T00:17:44.228Z,23.97
2016-07-25T00:18:44.215Z,23.99
2016-07-25T00:19:44.203Z,23.87
2016-07-25T00:20:43.480Z,23.96
2016-07-25T00:21:44.174Z,23.9
2016-07-25T00:22:44.161Z,24.02
2016-07-25T00:23:44.150Z,24.09
2016-07-25T00:24:44.136Z,24.04
2016-07-25T00:25:44.122Z,23.99
2016-07-25T00:26:43.395Z,23.93
2016-07-25T00:27:44.092Z,23.99
2016-07-25T00:28:44.072Z,24.02
2016-07-25T00:29:44.062Z,23.99
2016-07-25T00:30:44.050Z,24.18
2016-07-25T00:31:44.041Z,24.19
2016-07-25T00:32:44.018Z,24.08
2016-07-25T00:33:43.998Z,24.05
2016-07-25T00:34:43.983Z,24.05
2016-07-25T00:35:43.971Z,24.05
2016-07-25T00:36:43.955Z,23.96
2016-07-25T00:37:43.942Z,24
2016-07-25T00:38:43.926Z,23.92
2016-07-25T00:39:43.917Z,23.94
2016-07-25T00:40:43.902Z,23.92
2016-07-25T00:41:43.883Z,23.93
2016-07-25T00:42:43.880Z,23.9
2016-07-25T00:43:43.851Z,23.84
2016-07-25T00:44:43.838Z,23.82
2016-07-25T00:45:43.827Z,23.89
2016-07-25T00:46:43.812Z,23.81
2016-07-25T00:47:43.796Z,23.57
2016-07-25T00:48:43.789Z,23.62
2016-07-25T00:49:43.771Z,23.42
2016-07-25T00:50:43.761Z,23.44
2016-07-25T00:51:43.764Z,23.54
2016-07-25T00:52:43.726Z,23.54
2016-07-25T00:53:43.712Z,23.57
2016-07-25T00:54:43.696Z,23.62
2016-07-25T00:55:43.682Z,23.56
2016-07-25T00:56:43.673Z,23.53
2016-07-25T00:57:42.950Z,23.5
2016-07-25T00:58:43.657Z,23.45
2016-07-25T00:59:43.628Z,23.41
2016-07-25T01:00:43.617Z,23.47
2016-07-25T01:01:43.593Z,23.5
2016-07-25T01:02:43.587Z,23.49
2016-07-25T01:03:43.566Z,23.44
2016-07-25T01:04:43.564Z,23.52
2016-07-25T01:05:43.538Z,23.44
2016-07-25T01:06:43.519Z,23.53
2016-07-25T01:07:43.510Z,23.5
2016-07-25T01:08:42.793Z,23.44
2016-07-25T01:09:43.481Z,23.39
2016-07-25T01:10:43.470Z,23.39
2016-07-25T01:11:43.450Z,23.5
2016-07-25T01:12:43.441Z,23.47
2016-07-25T01:13:43.425Z,23.56
2016-07-25T01:14:43.407Z,23.44
2016-07-25T01:15:43.395Z,23.5
2016-07-25T01:16:42.668Z,23.41
2016-07-25T01:17:43.367Z,23.39
2016-07-25T01:18:43.350Z,23.41
2016-07-25T01:19:43.330Z,23.49
2016-07-25T01:20:43.317Z,23.42
2016-07-25T01:21:43.307Z,23.37
2016-07-25T01:22:43.295Z,23.41
2016-07-25T01:23:43.278Z,23.41
2016-07-25T01:24:43.260Z,23.39
2016-07-25T01:25:43.259Z,23.41
2016-07-25T01:26:43.254Z,23.44
2016-07-25T01:27:43.217Z,23.39
2016-07-25T01:28:43.201Z,23.41
2016-07-25T01:29:43.189Z,23.38
2016-07-25T01:30:43.173Z,23.38
2016-07-25T01:31:43.167Z,23.44
2016-07-25T01:32:43.144Z,23.44
2016-07-25T01:33:43.128Z,23.54
2016-07-25T01:34:43.129Z,23.39
2016-07-25T01:35:43.102Z,23.5
2016-07-25T01:36:43.086Z,23.41
2016-07-25T01:37:43.078Z,23.42
2016-07-25T01:38:43.058Z,23.42
2016-07-25T01:39:42.332Z,23.38
2016-07-25T01:40:43.032Z,23.31
2016-07-25T01:41:43.013Z,23.25
2016-07-25T01:42:42.290Z,23.31
2016-07-25T01:43:42.985Z,23.22
2016-07-25T01:44:42.969Z,23.16
2016-07-25T01:45:42.959Z,23.29
2016-07-25T01:46:42.934Z,23.22
2016-07-25T01:47:42.926Z,23.35
2016-07-25T01:48:42.914Z,23.35
2016-07-25T01:49:42.904Z,23.31
2016-07-25T01:50:42.175Z,23.29
2016-07-25T01:51:42.164Z,23.26
2016-07-25T01:52:42.854Z,23.22
2016-07-25T01:53:42.131Z,23.18
2016-07-25T01:54:42.824Z,23.16
2016-07-25T01:55:42.816Z,23.19
2016-07-25T01:56:42.086Z,23.31
2016-07-25T01:57:42.780Z,23.35
2016-07-25T01:58:42.762Z,23.38
2016-07-25T01:59:42.745Z,23.42
2016-07-25T02:00:42.739Z,23.45
2016-07-25T02:01:42.717Z,23.35
2016-07-25T02:02:42.720Z,23.37
2016-07-25T02:03:42.696Z,23.32
2016-07-25T02:04:42.684Z,23.35
2016-07-25T02:05:41.955Z,23.39
2016-07-25T02:06:42.646Z,23.37
2016-07-25T02:07:42.635Z,23.38
2016-07-25T02:08:42.621Z,23.47
2016-07-25T02:09:42.614Z,23.39
2016-07-25T02:10:42.597Z,23.41
2016-07-25T02:11:42.578Z,23.25
2016-07-25T02:12:42.557Z,23.34
2016-07-25T02:13:42.541Z,23.37
2016-07-25T02:14:42.529Z,23.29
2016-07-25T02:15:42.513Z,23.39
2016-07-25T02:16:42.495Z,23.34
2016-07-25T02:17:41.777Z,23.39
2016-07-25T02:18:42.478Z,23.41
2016-07-25T02:19:42.455Z,23.42
2016-07-25T02:20:42.447Z,23.42
2016-07-25T02:21:42.430Z,23.41
2016-07-25T02:22:42.416Z,23.45
2016-07-25T02:23:42.400Z,23.37
2016-07-25T02:24:42.386Z,23.37
2016-07-25T02:25:42.375Z,23.38
2016-07-25T02:26:42.356Z,23.45
2016-07-25T02:27:42.355Z,23.44
2016-07-25T02:28:42.332Z,23.38
2016-07-25T02:29:42.316Z,23.42
2016-07-25T02:30:42.291Z,23.41
2016-07-25T02:31:42.278Z,23.39
2016-07-25T02:32:42.268Z,23.26
2016-07-25T02:33:42.248Z,23.31
2016-07-25T02:34:42.242Z,23.26
2016-07-25T02:35:42.218Z,23.14
2016-07-25T02:36:42.211Z,23.04
2016-07-25T02:37:42.205Z,23.12
2016-07-25T02:38:42.182Z,23.16
2016-07-25T02:39:42.161Z,23.37
2016-07-25T02:40:42.152Z,23.47
2016-07-25T02:41:42.131Z,23.56
2016-07-25T02:42:42.133Z,23.6
2016-07-25T02:43:42.105Z,23.67
2016-07-25T02:44:42.101Z,23.47
2016-07-25T02:45:42.083Z,23.38
2016-07-25T02:46:42.063Z,23.26
2016-07-25T02:47:42.044Z,23.22
2016-07-25T02:48:42.038Z,23.22
2016-07-25T02:49:42.023Z,23.29
2016-07-25T02:50:42.008Z,23.29
2016-07-25T02:51:41.279Z,23.19
2016-07-25T02:52:41.263Z,23.18
2016-07-25T02:53:41.956Z,23.14
2016-07-25T02:54:41.947Z,23.25
2016-07-25T02:55:41.926Z,23.34
2016-07-25T02:56:41.918Z,23.49
2016-07-25T02:57:41.897Z,23.41
2016-07-25T02:58:41.894Z,23.5
2016-07-25T02:59:41.872Z,23.52
2016-07-25T03:00:41.852Z,23.41
2016-07-25T03:01:41.843Z,23.23
2016-07-25T03:02:41.828Z,23.15
2016-07-25T03:03:41.101Z,23.14
2016-07-25T03:04:41.797Z,23.15
2016-07-25T03:05:41.781Z,23.07
2016-07-25T03:06:41.772Z,23.04
2016-07-25T03:07:41.759Z,23.14
2016-07-25T03:08:41.733Z,23.14
2016-07-25T03:09:41.733Z,23.04
2016-07-25T03:10:41.708Z,23.07
2016-07-25T03:11:41.688Z,23.14
2016-07-25T03:12:41.675Z,23.34
2016-07-25T03:13:41.664Z,23.44
2016-07-25T03:14:40.937Z,23.5
2016-07-25T03:15:41.640Z,23.5
2016-07-25T03:16:41.620Z,23.44
2016-07-25T03:17:41.606Z,23.38
2016-07-25T03:18:41.587Z,23.45
2016-07-25T03:19:41.586Z,23.25
2016-07-25T03:20:41.552Z,23.15
2016-07-25T03:21:41.551Z,23.11
2016-07-25T03:22:41.542Z,23.07
2016-07-25T03:23:41.519Z,23.01
2016-07-25T03:24:41.505Z,22.97
2016-07-25T03:25:41.494Z,23.06
2016-07-25T03:26:40.770Z,23.06
2016-07-25T03:27:41.462Z,22.96
2016-07-25T03:28:40.736Z,22.96
2016-07-25T03:29:41.428Z,23.03
2016-07-25T03:30:40.705Z,23.09
2016-07-25T03:31:41.399Z,23.07
2016-07-25T03:32:41.402Z,23.14
2016-07-25T03:33:41.370Z,23.09
2016-07-25T03:34:41.361Z,23.01
2016-07-25T03:35:41.338Z,23.14
2016-07-25T03:36:40.619Z,22.99
2016-07-25T03:37:41.318Z,23
2016-07-25T03:38:40.585Z,23.03
2016-07-25T03:39:40.568Z,23.15
2016-07-25T03:40:41.266Z,23.01
2016-07-25T03:41:41.257Z,23.04
2016-07-25T03:42:41.234Z,23.11
2016-07-25T03:43:41.226Z,23.04
2016-07-25T03:44:41.203Z,23
2016-07-25T03:45:41.200Z,23.06
2016-07-25T03:46:41.167Z,23.09
2016-07-25T03:47:41.166Z,23.06
2016-07-25T03:48:41.140Z,23.12
2016-07-25T03:49:41.133Z,23
2016-07-25T03:50:40.412Z,23.07
2016-07-25T03:51:41.105Z,23.12
2016-07-25T03:52:41.084Z,23.06
2016-07-25T03:53:39.650Z,22.94
2016-07-25T03:54:41.057Z,22.97
2016-07-25T03:55:40.350Z,23.03
2016-07-25T03:56:41.031Z,23.01
2016-07-25T03:57:41.015Z,23
2016-07-25T03:58:40.290Z,23.11
2016-07-25T03:59:40.983Z,23
2016-07-25T04:00:40.973Z,23
2016-07-25T04:01:40.955Z,22.89
2016-07-25T04:02:40.941Z,22.91
2016-07-25T04:03:40.209Z,22.88
2016-07-25T04:04:40.907Z,22.93
2016-07-25T04:05:40.898Z,23.01
2016-07-25T04:06:40.874Z,22.99
2016-07-25T04:07:40.866Z,22.84
2016-07-25T04:08:40.844Z,22.89
2016-07-25T04:09:40.835Z,23.01
2016-07-25T04:10:40.113Z,22.89
2016-07-25T04:11:40.096Z,22.89
2016-07-25T04:12:40.793Z,23.01
2016-07-25T04:13:40.773Z,22.89
2016-07-25T04:14:40.760Z,22.99
2016-07-25T04:15:40.749Z,22.88
2016-07-25T04:16:40.737Z,22.89
2016-07-25T04:17:40.715Z,23
2016-07-25T04:18:40.698Z,23
2016-07-25T04:19:40.700Z,22.91
2016-07-25T04:20:40.668Z,22.97
2016-07-25T04:21:40.657Z,23.04
2016-07-25T04:22:39.936Z,22.93
2016-07-25T04:23:40.629Z,22.89
2016-07-25T04:24:40.614Z,22.86
2016-07-25T04:25:40.597Z,22.96
2016-07-25T04:26:40.583Z,22.85
2016-07-25T04:27:40.569Z,22.7
2016-07-25T04:28:40.549Z,22.72
2016-07-25T04:29:40.536Z,22.74
2016-07-25T04:30:40.522Z,22.79
2016-07-25T04:31:40.501Z,22.81
2016-07-25T04:32:40.499Z,22.85
2016-07-25T04:33:39.759Z,22.82
2016-07-25T04:34:40.457Z,22.82
2016-07-25T04:35:40.449Z,22.86
2016-07-25T04:36:40.432Z,22.81
2016-07-25T04:37:40.421Z,22.86
2016-07-25T04:38:40.392Z,22.88
2016-07-25T04:39:40.396Z,22.86
2016-07-25T04:40:40.370Z,22.88
2016-07-25T04:41:40.360Z,22.91
2016-07-25T04:42:40.340Z,22.91
2016-07-25T04:43:40.329Z,22.84
2016-07-25T04:44:40.304Z,22.84
2016-07-25T04:45:40.294Z,22.76
2016-07-25T04:46:40.284Z,22.85
2016-07-25T04:47:40.264Z,22.85
2016-07-25T04:48:40.251Z,22.86
2016-07-25T04:49:40.237Z,22.85
2016-07-25T04:50:40.215Z,22.84
2016-07-25T04:51:40.212Z,22.88
2016-07-25T04:52:40.187Z,22.81
2016-07-25T04:53:40.171Z,22.85
2016-07-25T04:54:40.160Z,22.82
2016-07-25T04:55:40.147Z,22.76
2016-07-25T04:56:40.129Z,22.81
2016-07-25T04:57:40.119Z,22.79
2016-07-25T04:58:40.107Z,22.75
2016-07-25T04:59:40.109Z,22.81
2016-07-25T05:00:40.069Z,22.84
2016-07-25T05:01:40.063Z,22.81
2016-07-25T05:02:40.037Z,22.82
2016-07-25T05:03:40.024Z,22.84
2016-07-25T05:04:40.001Z,22.78
2016-07-25T05:05:40.001Z,22.75
2016-07-25T05:06:39.978Z,22.75
2016-07-25T05:07:39.972Z,22.81
2016-07-25T05:08:39.950Z,22.85
2016-07-25T05:09:39.936Z,22.75
2016-07-25T05:10:39.920Z,22.69
2016-07-25T05:11:39.919Z,22.74
2016-07-25T05:12:39.887Z,22.76
2016-07-25T05:13:39.882Z,22.78
2016-07-25T05:14:39.859Z,22.79
2016-07-25T05:15:39.844Z,22.75
2016-07-25T05:16:39.830Z,22.76
2016-07-25T05:17:39.815Z,22.66
2016-07-25T05:18:39.088Z,22.72
2016-07-25T05:19:39.789Z,22.82
2016-07-25T05:20:39.771Z,22.82
2016-07-25T05:21:39.757Z,22.78
2016-07-25T05:22:39.750Z,22.81
2016-07-25T05:23:39.731Z,22.81
2016-07-25T05:24:39.705Z,22.82
2016-07-25T05:25:39.696Z,22.79
2016-07-25T05:26:39.679Z,22.81
2016-07-25T05:27:39.666Z,22.88
2016-07-25T05:28:38.940Z,22.81
2016-07-25T05:29:39.644Z,22.82
2016-07-25T05:30:39.617Z,22.85
2016-07-25T05:31:39.596Z,22.88
2016-07-25T05:32:38.877Z,22.79
2016-07-25T05:33:39.576Z,22.84
2016-07-25T05:34:39.557Z,22.82
2016-07-25T05:35:39.538Z,22.82
2016-07-25T05:36:39.521Z,22.84
2016-07-25T05:37:39.517Z,22.89
2016-07-25T05:38:38.783Z,22.85
2016-07-25T05:39:39.482Z,22.84
2016-07-25T05:40:39.464Z,22.86
2016-07-25T05:41:39.448Z,22.84
2016-07-25T05:42:39.439Z,22.89
2016-07-25T05:43:39.419Z,23
2016-07-25T05:44:38.711Z,23
2016-07-25T05:45:39.391Z,23
2016-07-25T05:46:39.376Z,22.84
2016-07-25T05:47:39.361Z,22.89
2016-07-25T05:48:39.351Z,22.89
2016-07-25T05:49:39.337Z,22.94
2016-07-25T05:50:39.321Z,22.91
2016-07-25T05:51:39.312Z,23.01
2016-07-25T05:52:39.289Z,22.93
2016-07-25T05:53:39.275Z,22.96
2016-07-25T05:54:39.261Z,22.93
2016-07-25T05:55:39.241Z,23.03
2016-07-25T05:56:39.227Z,22.84
2016-07-25T05:57:39.209Z,22.99
2016-07-25T05:58:39.200Z,23
2016-07-25T05:59:39.188Z,22.99
2016-07-25T06:00:38.457Z,23.03
2016-07-25T06:01:38.432Z,22.96
2016-07-25T06:02:39.145Z,22.94
2016-07-25T06:03:38.419Z,22.86
2016-07-25T06:04:39.110Z,22.89
2016-07-25T06:05:39.102Z,22.84
2016-07-25T06:06:39.075Z,22.96
2016-07-25T06:07:39.072Z,22.84
2016-07-25T06:08:39.049Z,22.86
2016-07-25T06:09:39.042Z,22.84
2016-07-25T06:10:39.022Z,22.93
2016-07-25T06:11:39.005Z,22.86
2016-07-25T06:12:38.328Z,23.01
2016-07-25T06:13:38.976Z,22.91
2016-07-25T06:14:38.972Z,22.99
2016-07-25T06:15:38.938Z,23.03
2016-07-25T06:16:38.921Z,22.86
2016-07-25T06:17:38.908Z,23
2016-07-25T06:18:38.194Z,23.03
2016-07-25T06:19:38.881Z,23.03
2016-07-25T06:20:38.869Z,23.03
2016-07-25T06:21:38.142Z,23.04
2016-07-25T06:22:38.836Z,23.06
2016-07-25T06:23:38.823Z,23.07
2016-07-25T06:24:38.806Z,23.07
2016-07-25T06:25:38.787Z,23.11
2016-07-25T06:26:38.774Z,23.12
2016-07-25T06:27:38.760Z,23.11
2016-07-25T06:28:38.744Z,23.15
2016-07-25T06:29:38.737Z,23.15
2016-07-25T06:30:38.715Z,23.09
2016-07-25T06:31:38.705Z,23.16
2016-07-25T06:32:38.684Z,23.16
2016-07-25T06:33:38.670Z,23.12
2016-07-25T06:34:38.660Z,23.19
2016-07-25T06:36:38.626Z,23.16
2016-07-25T06:37:37.907Z,23.31
2016-07-25T06:38:38.598Z,23.26
2016-07-25T06:39:38.587Z,23.25
2016-07-25T06:40:38.565Z,23.25
2016-07-25T06:41:37.840Z,23.16
2016-07-25T06:42:38.533Z,23.23
2016-07-25T06:43:38.525Z,23.23
2016-07-25T06:44:37.795Z,23.26
2016-07-25T06:45:38.491Z,23.38
2016-07-25T06:46:38.480Z,23.35
2016-07-25T06:47:38.478Z,23.26
2016-07-25T06:48:38.443Z,23.38
2016-07-25T06:49:38.428Z,23.31
2016-07-25T06:50:38.422Z,23.35
2016-07-25T06:51:37.701Z,23.45
2016-07-25T06:52:36.957Z,23.38
2016-07-25T06:53:38.366Z,23.39
2016-07-25T06:54:37.650Z,23.42
2016-07-25T06:56:38.325Z,23.37
2016-07-25T06:57:38.311Z,23.42
2016-07-25T06:58:38.302Z,23.41
2016-07-25T06:59:38.285Z,23.42
2016-07-25T07:00:37.552Z,23.42
2016-07-25T07:01:38.250Z,23.42
2016-07-25T07:02:38.241Z,23.39
2016-07-25T07:03:38.223Z,23.37
2016-07-25T07:04:38.208Z,23.39
2016-07-25T07:05:38.190Z,23.41
2016-07-25T07:06:38.200Z,23.39
2016-07-25T07:07:38.152Z,23.45
2016-07-25T07:08:38.142Z,23.44
2016-07-25T07:09:38.136Z,23.45
2016-07-25T07:10:38.112Z,23.44
2016-07-25T07:11:37.388Z,23.47
2016-07-25T07:12:37.374Z,23.49
2016-07-25T07:13:38.066Z,23.52
2016-07-25T07:14:38.055Z,23.62
2016-07-25T07:15:38.039Z,23.67
2016-07-25T07:16:38.024Z,23.57
2016-07-25T07:17:38.008Z,23.67
2016-07-25T07:18:37.991Z,23.56
2016-07-25T07:19:37.985Z,23.67
2016-07-25T07:20:37.971Z,23.59
2016-07-25T07:21:37.949Z,23.71
2016-07-25T07:22:37.935Z,23.63
2016-07-25T07:23:37.930Z,23.5
2016-07-25T07:24:37.909Z,23.49
2016-07-25T07:25:37.884Z,23.49
2016-07-25T07:26:37.876Z,23.57
2016-07-25T07:27:37.859Z,23.57
2016-07-25T07:28:37.845Z,23.56
2016-07-25T07:29:37.828Z,23.62
2016-07-25T07:30:37.821Z,23.62
2016-07-25T07:31:37.793Z,23.64
2016-07-25T07:32:37.787Z,23.59
2016-07-25T07:33:37.787Z,23.67
2016-07-25T07:34:37.061Z,23.77
2016-07-25T07:35:37.745Z,23.74
2016-07-25T07:36:37.728Z,23.81
2016-07-25T07:37:37.712Z,23.77
2016-07-25T07:38:37.688Z,23.81
2016-07-25T07:39:37.684Z,23.81
2016-07-25T07:40:37.674Z,23.78
2016-07-25T07:41:36.946Z,23.84
2016-07-25T07:42:37.654Z,23.87
2016-07-25T07:43:37.622Z,23.9
2016-07-25T07:44:37.616Z,23.86
2016-07-25T07:45:37.588Z,23.86
2016-07-25T07:46:37.584Z,23.94
2016-07-25T07:47:37.567Z,24.05
2016-07-25T07:48:37.545Z,24.09
2016-07-25T07:49:37.537Z,24.05
2016-07-25T07:50:37.519Z,24.09
2016-07-25T07:51:37.504Z,24.09
2016-07-25T07:52:37.482Z,24.09
2016-07-25T07:53:37.475Z,24.16
2016-07-25T07:54:37.466Z,24.12
2016-07-25T07:55:36.749Z,24.18
2016-07-25T07:56:37.447Z,24.18
2016-07-25T07:57:37.424Z,24.26
2016-07-25T07:59:37.390Z,24.29
2016-07-25T08:00:37.374Z,24.31
2016-07-25T08:01:37.412Z,24.29
2016-07-25T08:02:37.382Z,24.29
2016-07-25T08:03:37.324Z,24.27
2016-07-25T08:04:37.333Z,24.33
2016-07-25T08:05:37.308Z,24.33
2016-07-25T08:06:37.299Z,24.3
2016-07-25T08:07:37.266Z,24.36
2016-07-25T08:08:37.256Z,24.41
2016-07-25T08:09:36.526Z,24.39
2016-07-25T08:10:37.228Z,24.42
2016-07-25T08:11:37.217Z,24.41
2016-07-25T08:12:37.201Z,24.3
2016-07-25T08:13:37.201Z,24.26
2016-07-25T08:14:37.167Z,24.3
2016-07-25T08:15:37.154Z,24.29
2016-07-25T08:16:37.139Z,24.31
2016-07-25T08:17:37.128Z,24.27
2016-07-25T08:18:37.115Z,24.42
2016-07-25T08:19:37.090Z,24.33
2016-07-25T08:20:37.082Z,24.45
2016-07-25T08:21:37.067Z,24.37
2016-07-25T08:22:37.050Z,24.36
2016-07-25T08:24:37.042Z,24.37
2016-07-25T08:25:37.005Z,24.45
2016-07-25T08:26:36.995Z,24.42
2016-07-25T08:27:36.981Z,24.39
2016-07-25T08:28:36.969Z,24.41
2016-07-25T08:29:36.378Z,24.45
2016-07-25T08:30:36.935Z,24.42
2016-07-25T08:31:36.921Z,24.39
2016-07-25T08:32:36.194Z,24.44
2016-07-25T08:33:36.899Z,24.42
2016-07-25T08:34:36.873Z,24.45
2016-07-25T08:35:36.866Z,24.45
2016-07-25T08:36:36.849Z,24.42
2016-07-25T08:37:36.124Z,24.44
2016-07-25T08:38:36.817Z,24.44
2016-07-25T08:39:36.802Z,24.46
2016-07-25T08:40:36.086Z,24.44
2016-07-25T08:41:36.772Z,24.48
2016-07-25T08:42:36.760Z,24.48
2016-07-25T08:43:36.748Z,24.52
2016-07-25T08:44:36.740Z,24.42
2016-07-25T08:45:36.717Z,24.44
2016-07-25T08:46:36.708Z,24.46
2016-07-25T08:47:36.692Z,24.48
2016-07-25T08:48:36.680Z,24.48
2016-07-25T08:49:36.659Z,24.52
2016-07-25T08:50:36.652Z,24.53
2016-07-25T08:51:36.632Z,24.56
2016-07-25T08:52:36.615Z,24.56
2016-07-25T08:53:36.606Z,24.59
2016-07-25T08:54:36.591Z,24.59
2016-07-25T08:55:36.592Z,24.6
2016-07-25T08:56:36.574Z,24.63
2016-07-25T08:57:36.543Z,24.59
2016-07-25T08:58:36.524Z,24.61
2016-07-25T08:59:36.510Z,24.64
2016-07-25T09:00:36.502Z,24.63
2016-07-25T09:01:36.494Z,24.67
2016-07-25T09:02:36.477Z,24.63
2016-07-25T09:03:36.466Z,24.67
2016-07-25T09:04:36.446Z,24.71
2016-07-25T09:05:36.430Z,24.68
2016-07-25T09:06:36.413Z,24.66
2016-07-25T09:07:36.404Z,24.64
2016-07-25T09:08:36.396Z,24.67
2016-07-25T09:09:35.661Z,24.66
2016-07-25T09:10:35.660Z,24.67
2016-07-25T09:11:36.351Z,24.66
2016-07-25T09:12:36.329Z,24.71
2016-07-25T09:13:36.312Z,24.64
2016-07-25T09:14:36.296Z,24.7
2016-07-25T09:15:36.291Z,24.6
2016-07-25T09:16:35.573Z,24.68
2016-07-25T09:17:36.277Z,24.63
2016-07-25T09:18:36.252Z,24.63
2016-07-25T09:19:36.231Z,24.71
2016-07-25T09:20:36.226Z,24.66
2016-07-25T09:21:36.198Z,24.66
2016-07-25T09:22:36.184Z,24.71
2016-07-25T09:23:36.170Z,24.63
2016-07-25T09:24:36.162Z,24.74
2016-07-25T09:25:36.139Z,24.66
2016-07-25T09:26:35.419Z,24.64
2016-07-25T09:27:36.111Z,24.77
2016-07-25T09:28:36.104Z,24.63
2016-07-25T09:29:36.093Z,24.59
2016-07-25T09:30:36.083Z,24.64
2016-07-25T09:31:36.056Z,24.75
2016-07-25T09:32:35.348Z,24.74
2016-07-25T09:33:36.030Z,24.71
2016-07-25T09:34:36.012Z,24.64
2016-07-25T09:35:36.005Z,24.75
2016-07-25T09:36:36.139Z,24.74
2016-07-25T09:37:35.974Z,24.79
2016-07-25T09:38:35.960Z,24.79
2016-07-25T09:39:35.941Z,24.8
2016-07-25T09:40:35.925Z,24.79
2016-07-25T09:41:35.915Z,24.77
2016-07-25T09:42:35.902Z,24.77
2016-07-25T09:43:35.886Z,24.74
2016-07-25T09:44:35.879Z,24.77
2016-07-25T09:45:35.859Z,24.75
2016-07-25T09:46:35.844Z,24.82
2016-07-25T09:47:35.843Z,24.77
2016-07-25T09:48:35.812Z,24.87
2016-07-25T09:49:35.801Z,24.8
2016-07-25T09:50:35.785Z,24.89
2016-07-25T09:51:35.776Z,24.82
2016-07-25T09:52:35.761Z,24.84
2016-07-25T09:53:35.754Z,24.75
2016-07-25T09:54:35.734Z,24.8
2016-07-25T09:55:35.722Z,24.86
2016-07-25T09:56:35.722Z,24.79
2016-07-25T09:57:35.695Z,24.82
2016-07-25T09:58:35.677Z,24.79
2016-07-25T09:59:35.658Z,24.77
2016-07-25T10:00:35.655Z,24.8
2016-07-25T10:01:35.634Z,24.84
2016-07-25T10:02:35.618Z,24.79
2016-07-25T10:03:35.607Z,24.83
2016-07-25T10:04:35.592Z,24.9
2016-07-25T10:05:35.575Z,24.83
2016-07-25T10:06:35.564Z,24.93
2016-07-25T10:07:35.543Z,24.84
2016-07-25T10:08:35.528Z,24.84
2016-07-25T10:09:34.804Z,24.9
2016-07-25T10:10:35.502Z,24.79
2016-07-25T10:11:35.496Z,24.82
2016-07-25T10:12:35.483Z,24.97
2016-07-25T10:13:34.754Z,24.84
2016-07-25T10:14:35.458Z,24.8
2016-07-25T10:15:35.432Z,24.84
2016-07-25T10:16:35.429Z,24.8
2016-07-25T10:17:35.427Z,24.92
2016-07-25T10:18:35.400Z,24.89
2016-07-25T10:19:35.372Z,24.9
2016-07-25T10:20:34.650Z,24.77
2016-07-25T10:21:35.350Z,24.9
2016-07-25T10:22:35.338Z,24.86
2016-07-25T10:23:35.323Z,24.86
2016-07-25T10:24:35.346Z,24.8
2016-07-25T10:25:35.291Z,24.93
2016-07-25T10:26:35.275Z,24.97
2016-07-25T10:27:34.551Z,24.94
2016-07-25T10:28:35.259Z,24.93
2016-07-25T10:29:35.238Z,24.9
2016-07-25T10:30:35.232Z,24.86
2016-07-25T10:31:35.214Z,24.98
2016-07-25T10:32:35.191Z,24.92
2016-07-25T10:33:35.190Z,24.93
2016-07-25T10:34:35.165Z,24.99
2016-07-25T10:35:35.155Z,24.9
2016-07-25T10:36:35.132Z,24.93
2016-07-25T10:37:35.124Z,24.94
2016-07-25T10:38:34.396Z,24.97
2016-07-25T10:39:35.103Z,24.94
2016-07-25T10:40:34.369Z,24.97
2016-07-25T10:41:35.073Z,25.02
2016-07-25T10:42:35.060Z,24.94
2016-07-25T10:43:35.047Z,25.02
2016-07-25T10:44:35.030Z,24.98
2016-07-25T10:45:35.018Z,25.04
2016-07-25T10:46:35.005Z,24.93
2016-07-25T10:47:34.985Z,24.97
2016-07-25T10:48:34.975Z,24.99
2016-07-25T10:49:34.954Z,24.99
2016-07-25T10:50:34.945Z,25.01
2016-07-25T10:51:34.928Z,25.04
2016-07-25T10:52:34.915Z,25.01
2016-07-25T10:53:34.898Z,25.05
2016-07-25T10:54:34.885Z,25.02
2016-07-25T10:55:34.887Z,25.04
2016-07-25T10:56:34.861Z,25.01
2016-07-25T10:57:34.839Z,24.97
2016-07-25T10:58:34.827Z,25.02
2016-07-25T10:59:34.823Z,25.01
2016-07-25T11:00:34.811Z,25.04
2016-07-25T11:01:34.797Z,24.97
2016-07-25T11:02:34.772Z,25.08
2016-07-25T11:03:34.756Z,25.04
2016-07-25T11:04:34.801Z,24.99
2016-07-25T11:05:34.755Z,25.02
2016-07-25T11:06:34.711Z,25.08
2016-07-25T11:07:34.718Z,25.01
2016-07-25T11:08:33.285Z,25.01
2016-07-25T11:09:33.970Z,25.08
2016-07-25T11:10:34.668Z,25.02
2016-07-25T11:11:34.659Z,25.05
2016-07-25T11:12:34.641Z,25.02
2016-07-25T11:13:34.625Z,25.08
2016-07-25T11:14:34.604Z,25.05
2016-07-25T11:15:34.585Z,25.11
2016-07-25T11:16:34.589Z,25.07
2016-07-25T11:17:34.567Z,25.08
2016-07-25T11:18:34.552Z,25.12
2016-07-25T11:19:34.546Z,25.08
2016-07-25T11:20:34.526Z,25.02
2016-07-25T11:21:34.521Z,25.11
2016-07-25T11:22:34.498Z,25.02
2016-07-25T11:23:34.493Z,25.02
2016-07-25T11:24:34.476Z,25.07
2016-07-25T11:25:34.457Z,25.09
2016-07-25T11:26:34.440Z,25.11
2016-07-25T11:27:34.439Z,25.04
2016-07-25T11:28:34.413Z,25.04
2016-07-25T11:29:34.396Z,25.05
2016-07-25T11:30:34.394Z,25.09
2016-07-25T11:31:34.366Z,25.05
2016-07-25T11:32:34.355Z,25.08
2016-07-25T11:33:34.346Z,25.05
2016-07-25T11:34:34.329Z,25.07
2016-07-25T11:35:34.331Z,25.09
2016-07-25T11:36:33.593Z,25.05
2016-07-25T11:37:33.576Z,25.07
2016-07-25T11:38:34.271Z,25.11
2016-07-25T11:39:34.262Z,25.04
2016-07-25T11:40:34.251Z,25.09
2016-07-25T11:41:34.233Z,25.09
2016-07-25T11:42:33.515Z,25.12
2016-07-25T11:43:34.209Z,25.07
2016-07-25T11:44:34.189Z,25.08
2016-07-25T11:45:34.176Z,25.08
2016-07-25T11:46:34.155Z,25.12
2016-07-25T11:47:34.152Z,25.11
2016-07-25T11:48:34.139Z,25.04
2016-07-25T11:49:34.122Z,25.09
2016-07-25T11:50:34.111Z,25.11
2016-07-25T11:51:34.098Z,25.17
2016-07-25T11:52:34.070Z,25.19
2016-07-25T11:53:34.067Z,25.2
2016-07-25T11:54:33.346Z,25.09
2016-07-25T11:55:33.339Z,25.22
2016-07-25T11:56:34.028Z,25.22
2016-07-25T11:57:33.313Z,25.17
2016-07-25T11:58:34.002Z,25.22
2016-07-25T11:59:33.978Z,25.16
2016-07-25T12:00:33.982Z,25.2
2016-07-25T12:01:33.960Z,25.19
2016-07-25T12:02:33.232Z,25.14
2016-07-25T12:03:33.241Z,25.2
2016-07-25T12:04:33.206Z,25.19
2016-07-25T12:05:33.910Z,25.14
2016-07-25T12:06:33.894Z,25.16
2016-07-25T12:07:33.883Z,25.2
2016-07-25T12:08:33.863Z,25.12
2016-07-25T12:09:33.848Z,25.17
2016-07-25T12:10:33.827Z,25.2
2016-07-25T12:11:33.125Z,25.23
2016-07-25T12:12:33.110Z,25.26
2016-07-25T12:13:33.785Z,25.22
2016-07-25T12:14:33.783Z,25.3
2016-07-25T12:15:33.762Z,25.26
2016-07-25T12:16:33.762Z,25.14
2016-07-25T12:17:33.743Z,25.19
2016-07-25T12:18:33.717Z,25.17
2016-07-25T12:19:33.708Z,25.19
2016-07-25T12:20:33.694Z,25.12
2016-07-25T12:21:33.685Z,25.16
2016-07-25T12:22:33.668Z,25.22
2016-07-25T12:23:33.654Z,25.17
2016-07-25T12:24:33.640Z,25.17
2016-07-25T12:25:32.923Z,25.17
2016-07-25T12:26:33.626Z,25.22
2016-07-25T12:27:33.600Z,25.14
2016-07-25T12:28:33.587Z,25.14
2016-07-25T12:29:33.578Z,25.16
2016-07-25T12:30:33.552Z,25.12
2016-07-25T12:31:33.543Z,25.2
2016-07-25T12:32:33.529Z,25.17
2016-07-25T12:33:33.535Z,25.2
2016-07-25T12:34:33.500Z,25.16
2016-07-25T12:35:33.491Z,25.16
2016-07-25T12:36:33.492Z,25.17
2016-07-25T12:37:33.461Z,25.22
2016-07-25T12:38:33.452Z,25.19
2016-07-25T12:39:32.725Z,25.17
2016-07-25T12:40:33.422Z,25.2
2016-07-25T12:41:33.403Z,25.19
2016-07-25T12:42:32.684Z,25.17
2016-07-25T12:43:33.391Z,25.17
2016-07-25T12:44:33.369Z,25.16
2016-07-25T12:45:33.350Z,25.17
2016-07-25T12:46:33.343Z,25.19
2016-07-25T12:47:32.605Z,25.19
2016-07-25T12:48:33.316Z,25.14
2016-07-25T12:49:32.590Z,25.17
2016-07-25T12:50:33.280Z,25.14
2016-07-25T12:51:33.282Z,25.11
2016-07-25T12:52:33.258Z,25.19
2016-07-25T12:53:33.238Z,25.2
2016-07-25T12:54:33.228Z,25.14
2016-07-25T12:55:33.218Z,25.14
2016-07-25T12:56:33.210Z,25.14
2016-07-25T12:57:33.182Z,25.17
2016-07-25T12:58:33.171Z,25.14
2016-07-25T12:59:33.162Z,25.16